sensor_id;sensor_type;location;lat;lon;timestamp;temperature;humidity
59309;DHT22;48433;53.016;-2.260;2022-07-29T00:01:54;17.40;99.90
59309;DHT22;48433;53.016;-2.260;2022-07-29T00:04:22;17.40;99.90
59309;DHT22;48433;53.016;-2.260;2022-07-29T00:06:49;17.40;99.90
59309;DHT22;48433;53.016;-2.260;2022-07-29T00:09:17;17.40;99.90
59309;DHT22;48433;53.016;-2.260;2022-07-29T00:11:45;17.30;99.90
59309;DHT22;48433;53.016;-2.260;2022-07-29T00:14:12;17.40;99.90
59309;DHT22;48433;53.016;-2.260;2022-07-29T00:16:40;17.40;99.90
59309;DHT22;48433;53.016;-2.260;2022-07-29T00:19:08;17.30;99.90
59309;DHT22;48433;53.016;-2.260;2022-07-29T00:21:37;17.30;99.90
59309;DHT22;48433;53.016;-2.260;2022-07-29T00:24:05;17.30;99.90
59309;DHT22;48433;53.016;-2.260;2022-07-29T00:26:33;17.30;99.90
59309;DHT22;48433;53.016;-2.260;2022-07-29T00:29:03;17.20;99.90
59309;DHT22;48433;53.016;-2.260;2022-07-29T00:31:51;17.20;99.90
59309;DHT22;48433;53.016;-2.260;2022-07-29T00:34:18;17.20;99.90
59309;DHT22;48433;53.016;-2.260;2022-07-29T00:37:05;17.20;99.90
59309;DHT22;48433;53.016;-2.260;2022-07-29T00:39:34;17.20;99.90
59309;DHT22;48433;53.016;-2.260;2022-07-29T00:42:03;17.10;99.90
59309;DHT22;48433;53.016;-2.260;2022-07-29T00:44:37;17.10;99.90
59309;DHT22;48433;53.016;-2.260;2022-07-29T00:47:05;17.10;99.90
59309;DHT22;48433;53.016;-2.260;2022-07-29T00:49:34;17.90;99.90
59309;DHT22;48433;53.016;-2.260;2022-07-29T00:52:03;17.00;99.90
59309;DHT22;48433;53.016;-2.260;2022-07-29T00:54:32;17.00;99.90
59309;DHT22;48433;53.016;-2.260;2022-07-29T00:57:01;17.00;99.90
59309;DHT22;48433;53.016;-2.260;2022-07-29T00:59:28;16.90;99.90
59309;DHT22;48433;53.016;-2.260;2022-07-29T01:02:05;16.90;99.90
59309;DHT22;48433;53.016;-2.260;2022-07-29T01:04:33;16.90;99.90
59309;DHT22;48433;53.016;-2.260;2022-07-29T01:07:02;16.90;99.90
59309;DHT22;48433;53.016;-2.260;2022-07-29T01:09:32;16.90;99.90
59309;DHT22;48433;53.016;-2.260;2022-07-29T01:12:23;16.90;99.90
59309;DHT22;48433;53.016;-2.260;2022-07-29T01:14:52;16.80;99.90
59309;DHT22;48433;53.016;-2.260;2022-07-29T01:30:42;16.80;99.40
59309;DHT22;48433;53.016;-2.260;2022-07-29T01:33:15;16.80;99.20
59309;DHT22;48433;53.016;-2.260;2022-07-29T01:36:10;16.80;99.10
59309;DHT22;48433;53.016;-2.260;2022-07-29T01:38:41;16.80;99.10
59309;DHT22;48433;53.016;-2.260;2022-07-29T01:41:14;16.70;98.90
59309;DHT22;48433;53.016;-2.260;2022-07-29T01:43:51;16.70;99.00
59309;DHT22;48433;53.016;-2.260;2022-07-29T01:46:38;16.70;98.90
59309;DHT22;48433;53.016;-2.260;2022-07-29T01:49:20;16.70;98.80
59309;DHT22;48433;53.016;-2.260;2022-07-29T01:51:50;16.70;98.70
59309;DHT22;48433;53.016;-2.260;2022-07-29T01:54:32;16.70;98.70
59309;DHT22;48433;53.016;-2.260;2022-07-29T01:57:01;16.60;98.70
59309;DHT22;48433;53.016;-2.260;2022-07-29T01:59:33;16.60;98.80
59309;DHT22;48433;53.016;-2.260;2022-07-29T02:02:03;16.60;98.80
59309;DHT22;48433;53.016;-2.260;2022-07-29T02:04:33;16.50;98.70
59309;DHT22;48433;53.016;-2.260;2022-07-29T02:07:05;16.50;98.60
59309;DHT22;48433;53.016;-2.260;2022-07-29T02:09:35;16.50;98.50
59309;DHT22;48433;53.016;-2.260;2022-07-29T02:12:04;16.50;98.50
59309;DHT22;48433;53.016;-2.260;2022-07-29T02:14:37;16.50;98.40
59309;DHT22;48433;53.016;-2.260;2022-07-29T02:17:05;16.50;98.50
59309;DHT22;48433;53.016;-2.260;2022-07-29T02:19:34;16.40;98.30
59309;DHT22;48433;53.016;-2.260;2022-07-29T02:22:05;16.40;98.30
59309;DHT22;48433;53.016;-2.260;2022-07-29T02:24:35;16.40;98.40
59309;DHT22;48433;53.016;-2.260;2022-07-29T02:27:04;16.40;98.40
59309;DHT22;48433;53.016;-2.260;2022-07-29T02:29:32;16.40;98.30
59309;DHT22;48433;53.016;-2.260;2022-07-29T02:32:03;16.40;98.30
59309;DHT22;48433;53.016;-2.260;2022-07-29T02:34:32;16.40;98.30
59309;DHT22;48433;53.016;-2.260;2022-07-29T02:37:01;16.30;98.20
59309;DHT22;48433;53.016;-2.260;2022-07-29T02:39:30;16.30;98.20
59309;DHT22;48433;53.016;-2.260;2022-07-29T02:42:02;16.30;98.20
59309;DHT22;48433;53.016;-2.260;2022-07-29T02:44:30;16.30;98.10
59309;DHT22;48433;53.016;-2.260;2022-07-29T02:47:30;16.30;98.20
59309;DHT22;48433;53.016;-2.260;2022-07-29T02:52:47;16.30;98.30
59309;DHT22;48433;53.016;-2.260;2022-07-29T02:55:19;16.20;98.30
59309;DHT22;48433;53.016;-2.260;2022-07-29T02:57:51;16.20;98.30
59309;DHT22;48433;53.016;-2.260;2022-07-29T03:00:24;16.20;98.40
59309;DHT22;48433;53.016;-2.260;2022-07-29T03:02:56;16.10;98.30
59309;DHT22;48433;53.016;-2.260;2022-07-29T03:05:25;16.20;98.30
59309;DHT22;48433;53.016;-2.260;2022-07-29T03:07:57;16.20;98.40
59309;DHT22;48433;53.016;-2.260;2022-07-29T03:10:26;16.10;98.40
59309;DHT22;48433;53.016;-2.260;2022-07-29T03:12:55;16.10;98.50
59309;DHT22;48433;53.016;-2.260;2022-07-29T03:15:25;16.10;98.50
59309;DHT22;48433;53.016;-2.260;2022-07-29T03:17:53;16.10;98.50
59309;DHT22;48433;53.016;-2.260;2022-07-29T03:20:22;16.10;98.60
59309;DHT22;48433;53.016;-2.260;2022-07-29T03:22:50;16.00;98.60
59309;DHT22;48433;53.016;-2.260;2022-07-29T03:25:19;16.00;98.60
59309;DHT22;48433;53.016;-2.260;2022-07-29T03:27:47;16.00;99.00
59309;DHT22;48433;53.016;-2.260;2022-07-29T03:30:15;16.00;98.80
59309;DHT22;48433;53.016;-2.260;2022-07-29T03:32:52;16.00;99.10
59309;DHT22;48433;53.016;-2.260;2022-07-29T03:35:20;15.90;99.20
59309;DHT22;48433;53.016;-2.260;2022-07-29T03:37:48;15.90;99.50
59309;DHT22;48433;53.016;-2.260;2022-07-29T03:40:27;15.80;99.80
59309;DHT22;48433;53.016;-2.260;2022-07-29T03:42:59;15.80;99.90
59309;DHT22;48433;53.016;-2.260;2022-07-29T03:45:29;15.70;99.90
59309;DHT22;48433;53.016;-2.260;2022-07-29T03:48:02;15.70;99.90
59309;DHT22;48433;53.016;-2.260;2022-07-29T03:50:33;15.60;99.90
59309;DHT22;48433;53.016;-2.260;2022-07-29T03:53:02;15.50;99.90
59309;DHT22;48433;53.016;-2.260;2022-07-29T03:55:33;15.40;99.90
59309;DHT22;48433;53.016;-2.260;2022-07-29T03:58:03;15.40;99.90
59309;DHT22;48433;53.016;-2.260;2022-07-29T04:00:31;15.30;99.90
59309;DHT22;48433;53.016;-2.260;2022-07-29T04:03:02;15.30;99.90
59309;DHT22;48433;53.016;-2.260;2022-07-29T04:05:37;15.20;99.90
59309;DHT22;48433;53.016;-2.260;2022-07-29T04:08:05;15.10;99.90
59309;DHT22;48433;53.016;-2.260;2022-07-29T04:10:33;15.10;99.90
59309;DHT22;48433;53.016;-2.260;2022-07-29T04:13:02;15.10;99.90
59309;DHT22;48433;53.016;-2.260;2022-07-29T04:15:29;15.00;99.90
59309;DHT22;48433;53.016;-2.260;2022-07-29T04:17:58;15.00;99.90
59309;DHT22;48433;53.016;-2.260;2022-07-29T04:20:26;15.00;99.90
59309;DHT22;48433;53.016;-2.260;2022-07-29T04:22:54;15.00;99.90
59309;DHT22;48433;53.016;-2.260;2022-07-29T04:25:22;15.00;99.90
59309;DHT22;48433;53.016;-2.260;2022-07-29T04:27:50;14.90;99.90
59309;DHT22;48433;53.016;-2.260;2022-07-29T04:30:34;15.00;99.90
59309;DHT22;48433;53.016;-2.260;2022-07-29T04:33:04;15.00;99.90
59309;DHT22;48433;53.016;-2.260;2022-07-29T04:35:36;15.00;99.90
59309;DHT22;48433;53.016;-2.260;2022-07-29T04:38:13;15.00;99.90
59309;DHT22;48433;53.016;-2.260;2022-07-29T04:40:43;15.00;99.90
59309;DHT22;48433;53.016;-2.260;2022-07-29T04:43:11;15.00;99.90
59309;DHT22;48433;53.016;-2.260;2022-07-29T04:45:41;15.00;99.90
59309;DHT22;48433;53.016;-2.260;2022-07-29T04:48:09;15.00;99.90
59309;DHT22;48433;53.016;-2.260;2022-07-29T04:50:40;15.00;99.90
59309;DHT22;48433;53.016;-2.260;2022-07-29T04:53:08;15.00;99.90
59309;DHT22;48433;53.016;-2.260;2022-07-29T04:55:35;15.10;99.90
59309;DHT22;48433;53.016;-2.260;2022-07-29T04:58:05;15.10;99.90
59309;DHT22;48433;53.016;-2.260;2022-07-29T05:00:33;15.10;99.90
59309;DHT22;48433;53.016;-2.260;2022-07-29T05:03:01;15.10;99.90
59309;DHT22;48433;53.016;-2.260;2022-07-29T05:05:29;15.10;99.90
59309;DHT22;48433;53.016;-2.260;2022-07-29T05:07:57;15.10;99.90
59309;DHT22;48433;53.016;-2.260;2022-07-29T05:10:25;15.10;99.90
59309;DHT22;48433;53.016;-2.260;2022-07-29T05:12:53;15.10;99.90
59309;DHT22;48433;53.016;-2.260;2022-07-29T05:15:20;15.10;99.90
59309;DHT22;48433;53.016;-2.260;2022-07-29T05:17:48;15.00;99.90
59309;DHT22;48433;53.016;-2.260;2022-07-29T05:20:15;15.00;99.90
59309;DHT22;48433;53.016;-2.260;2022-07-29T05:22:43;15.00;99.90
59309;DHT22;48433;53.016;-2.260;2022-07-29T05:25:11;14.90;99.90
59309;DHT22;48433;53.016;-2.260;2022-07-29T05:27:38;14.90;99.90
59309;DHT22;48433;53.016;-2.260;2022-07-29T05:30:07;14.90;99.90
59309;DHT22;48433;53.016;-2.260;2022-07-29T05:32:34;14.80;99.90
59309;DHT22;48433;53.016;-2.260;2022-07-29T05:35:02;14.80;99.90
59309;DHT22;48433;53.016;-2.260;2022-07-29T05:37:30;14.80;99.90
59309;DHT22;48433;53.016;-2.260;2022-07-29T05:39:58;14.80;99.90
59309;DHT22;48433;53.016;-2.260;2022-07-29T05:42:26;14.80;99.90
59309;DHT22;48433;53.016;-2.260;2022-07-29T05:44:54;14.80;99.90
59309;DHT22;48433;53.016;-2.260;2022-07-29T05:47:23;14.80;99.90
59309;DHT22;48433;53.016;-2.260;2022-07-29T05:49:51;14.90;99.90
59309;DHT22;48433;53.016;-2.260;2022-07-29T05:52:19;14.90;99.90
59309;DHT22;48433;53.016;-2.260;2022-07-29T05:54:47;14.90;99.90
59309;DHT22;48433;53.016;-2.260;2022-07-29T05:57:19;14.90;99.90
59309;DHT22;48433;53.016;-2.260;2022-07-29T05:59:47;15.00;99.90
59309;DHT22;48433;53.016;-2.260;2022-07-29T06:02:16;15.00;99.90
59309;DHT22;48433;53.016;-2.260;2022-07-29T06:04:44;15.00;99.90
59309;DHT22;48433;53.016;-2.260;2022-07-29T06:07:12;15.00;99.90
59309;DHT22;48433;53.016;-2.260;2022-07-29T06:09:39;15.00;99.90
59309;DHT22;48433;53.016;-2.260;2022-07-29T06:12:08;15.00;99.90
59309;DHT22;48433;53.016;-2.260;2022-07-29T06:14:36;15.00;99.90
59309;DHT22;48433;53.016;-2.260;2022-07-29T06:17:05;15.00;99.90
59309;DHT22;48433;53.016;-2.260;2022-07-29T06:19:36;15.00;99.90
59309;DHT22;48433;53.016;-2.260;2022-07-29T06:22:04;15.00;99.90
59309;DHT22;48433;53.016;-2.260;2022-07-29T06:24:32;15.00;99.90
59309;DHT22;48433;53.016;-2.260;2022-07-29T06:26:59;15.00;99.90
59309;DHT22;48433;53.016;-2.260;2022-07-29T06:29:27;15.00;99.90
59309;DHT22;48433;53.016;-2.260;2022-07-29T06:31:55;15.00;99.90
59309;DHT22;48433;53.016;-2.260;2022-07-29T06:34:22;15.00;99.90
59309;DHT22;48433;53.016;-2.260;2022-07-29T06:36:50;15.00;99.90
59309;DHT22;48433;53.016;-2.260;2022-07-29T06:39:20;15.10;99.90
59309;DHT22;48433;53.016;-2.260;2022-07-29T06:41:49;15.10;99.90
59309;DHT22;48433;53.016;-2.260;2022-07-29T06:44:18;15.10;99.90
59309;DHT22;48433;53.016;-2.260;2022-07-29T06:46:46;15.20;99.90
59309;DHT22;48433;53.016;-2.260;2022-07-29T06:49:16;15.20;99.90
59309;DHT22;48433;53.016;-2.260;2022-07-29T06:51:44;15.30;99.90
59309;DHT22;48433;53.016;-2.260;2022-07-29T06:54:11;15.40;99.90
59309;DHT22;48433;53.016;-2.260;2022-07-29T06:56:40;15.40;99.90
59309;DHT22;48433;53.016;-2.260;2022-07-29T06:59:10;15.50;99.90
59309;DHT22;48433;53.016;-2.260;2022-07-29T07:01:40;15.50;99.90
59309;DHT22;48433;53.016;-2.260;2022-07-29T07:04:09;15.70;99.90
59309;DHT22;48433;53.016;-2.260;2022-07-29T07:06:37;15.70;99.90
59309;DHT22;48433;53.016;-2.260;2022-07-29T07:09:05;15.80;99.90
59309;DHT22;48433;53.016;-2.260;2022-07-29T07:11:33;15.90;99.90
59309;DHT22;48433;53.016;-2.260;2022-07-29T07:14:01;15.90;99.90
59309;DHT22;48433;53.016;-2.260;2022-07-29T07:16:31;15.90;99.90
59309;DHT22;48433;53.016;-2.260;2022-07-29T07:19:00;15.90;99.90
59309;DHT22;48433;53.016;-2.260;2022-07-29T07:21:28;15.90;99.90
59309;DHT22;48433;53.016;-2.260;2022-07-29T07:23:57;15.90;99.90
59309;DHT22;48433;53.016;-2.260;2022-07-29T07:26:26;15.90;99.90
59309;DHT22;48433;53.016;-2.260;2022-07-29T07:28:54;15.90;99.90
59309;DHT22;48433;53.016;-2.260;2022-07-29T07:31:22;15.90;99.90
59309;DHT22;48433;53.016;-2.260;2022-07-29T07:33:49;15.90;99.90
59309;DHT22;48433;53.016;-2.260;2022-07-29T07:36:17;15.90;99.90
59309;DHT22;48433;53.016;-2.260;2022-07-29T07:38:45;16.00;99.90
59309;DHT22;48433;53.016;-2.260;2022-07-29T07:41:12;16.10;99.90
59309;DHT22;48433;53.016;-2.260;2022-07-29T07:43:40;16.20;99.90
59309;DHT22;48433;53.016;-2.260;2022-07-29T07:46:08;16.30;99.90
59309;DHT22;48433;53.016;-2.260;2022-07-29T07:48:35;16.40;99.90
59309;DHT22;48433;53.016;-2.260;2022-07-29T07:51:03;16.40;99.90
59309;DHT22;48433;53.016;-2.260;2022-07-29T07:53:31;16.50;99.90
59309;DHT22;48433;53.016;-2.260;2022-07-29T07:55:59;16.60;99.90
59309;DHT22;48433;53.016;-2.260;2022-07-29T07:58:37;16.60;99.90
59309;DHT22;48433;53.016;-2.260;2022-07-29T08:01:06;16.60;99.90
59309;DHT22;48433;53.016;-2.260;2022-07-29T08:03:34;16.60;99.90
59309;DHT22;48433;53.016;-2.260;2022-07-29T08:06:03;16.60;99.90
59309;DHT22;48433;53.016;-2.260;2022-07-29T08:08:31;16.60;99.90
59309;DHT22;48433;53.016;-2.260;2022-07-29T08:10:58;16.70;99.90
59309;DHT22;48433;53.016;-2.260;2022-07-29T08:13:34;16.70;99.90
59309;DHT22;48433;53.016;-2.260;2022-07-29T08:16:02;16.70;99.90
59309;DHT22;48433;53.016;-2.260;2022-07-29T08:18:40;16.80;99.90
59309;DHT22;48433;53.016;-2.260;2022-07-29T08:21:08;16.80;99.90
59309;DHT22;48433;53.016;-2.260;2022-07-29T08:23:35;16.90;99.90
59309;DHT22;48433;53.016;-2.260;2022-07-29T08:26:16;16.90;99.90
59309;DHT22;48433;53.016;-2.260;2022-07-29T08:28:45;17.00;99.90
59309;DHT22;48433;53.016;-2.260;2022-07-29T08:31:13;17.10;99.90
59309;DHT22;48433;53.016;-2.260;2022-07-29T08:33:42;17.30;99.90
59309;DHT22;48433;53.016;-2.260;2022-07-29T08:36:10;17.30;99.90
59309;DHT22;48433;53.016;-2.260;2022-07-29T08:38:37;17.40;99.90
59309;DHT22;48433;53.016;-2.260;2022-07-29T08:41:05;17.60;99.90
59309;DHT22;48433;53.016;-2.260;2022-07-29T08:43:33;17.70;99.90
59309;DHT22;48433;53.016;-2.260;2022-07-29T08:46:04;17.80;99.90
59309;DHT22;48433;53.016;-2.260;2022-07-29T08:48:32;17.80;99.90
59309;DHT22;48433;53.016;-2.260;2022-07-29T08:51:01;17.90;99.90
59309;DHT22;48433;53.016;-2.260;2022-07-29T08:53:30;18.00;99.90
59309;DHT22;48433;53.016;-2.260;2022-07-29T08:55:59;18.10;99.90
59309;DHT22;48433;53.016;-2.260;2022-07-29T08:58:31;18.20;99.90
59309;DHT22;48433;53.016;-2.260;2022-07-29T09:01:04;18.30;99.90
59309;DHT22;48433;53.016;-2.260;2022-07-29T09:03:37;18.50;99.90
59309;DHT22;48433;53.016;-2.260;2022-07-29T09:06:05;18.70;99.90
59309;DHT22;48433;53.016;-2.260;2022-07-29T09:08:33;18.90;99.90
59309;DHT22;48433;53.016;-2.260;2022-07-29T09:11:02;19.10;99.90
59309;DHT22;48433;53.016;-2.260;2022-07-29T09:13:32;19.30;99.90
59309;DHT22;48433;53.016;-2.260;2022-07-29T09:16:00;19.50;99.90
59309;DHT22;48433;53.016;-2.260;2022-07-29T09:18:41;19.70;99.90
59309;DHT22;48433;53.016;-2.260;2022-07-29T09:21:14;19.90;99.90
59309;DHT22;48433;53.016;-2.260;2022-07-29T09:26:45;20.40;99.90
59309;DHT22;48433;53.016;-2.260;2022-07-29T09:29:21;20.60;99.90
59309;DHT22;48433;53.016;-2.260;2022-07-29T09:31:52;20.70;99.30
59309;DHT22;48433;53.016;-2.260;2022-07-29T09:34:28;20.70;99.70
59309;DHT22;48433;53.016;-2.260;2022-07-29T09:36:57;20.90;99.40
59309;DHT22;48433;53.016;-2.260;2022-07-29T09:39:36;21.00;99.20
59309;DHT22;48433;53.016;-2.260;2022-07-29T09:42:06;21.10;98.30
59309;DHT22;48433;53.016;-2.260;2022-07-29T09:44:45;21.10;98.40
59309;DHT22;48433;53.016;-2.260;2022-07-29T09:47:13;21.00;98.20
59309;DHT22;48433;53.016;-2.260;2022-07-29T09:49:52;21.00;98.00
59309;DHT22;48433;53.016;-2.260;2022-07-29T09:52:21;20.90;97.40
59309;DHT22;48433;53.016;-2.260;2022-07-29T09:54:48;20.90;97.30
59309;DHT22;48433;53.016;-2.260;2022-07-29T09:57:27;20.90;97.40
59309;DHT22;48433;53.016;-2.260;2022-07-29T10:00:03;21.00;96.70
59309;DHT22;48433;53.016;-2.260;2022-07-29T10:02:42;21.00;96.50
59309;DHT22;48433;53.016;-2.260;2022-07-29T10:10:25;21.00;96.00
59309;DHT22;48433;53.016;-2.260;2022-07-29T10:12:58;21.00;95.50
59309;DHT22;48433;53.016;-2.260;2022-07-29T10:15:39;20.90;95.50
59309;DHT22;48433;53.016;-2.260;2022-07-29T10:18:08;20.90;95.60
59309;DHT22;48433;53.016;-2.260;2022-07-29T10:20:37;21.00;95.60
59309;DHT22;48433;53.016;-2.260;2022-07-29T10:23:05;21.00;95.40
59309;DHT22;48433;53.016;-2.260;2022-07-29T10:25:33;21.10;95.30
59309;DHT22;48433;53.016;-2.260;2022-07-29T10:28:01;21.10;95.40
59309;DHT22;48433;53.016;-2.260;2022-07-29T10:30:29;21.20;94.90
59309;DHT22;48433;53.016;-2.260;2022-07-29T10:42:10;21.50;94.40
59309;DHT22;48433;53.016;-2.260;2022-07-29T10:44:43;21.50;94.20
59309;DHT22;48433;53.016;-2.260;2022-07-29T10:47:23;21.50;94.20
59309;DHT22;48433;53.016;-2.260;2022-07-29T10:50:02;21.50;94.20
59309;DHT22;48433;53.016;-2.260;2022-07-29T10:55:43;21.70;93.90
59309;DHT22;48433;53.016;-2.260;2022-07-29T10:58:18;21.70;93.50
59309;DHT22;48433;53.016;-2.260;2022-07-29T11:00:47;21.80;93.70
59309;DHT22;48433;53.016;-2.260;2022-07-29T11:03:45;21.80;93.10
59309;DHT22;48433;53.016;-2.260;2022-07-29T11:06:17;21.90;93.00
59309;DHT22;48433;53.016;-2.260;2022-07-29T11:09:15;22.00;93.20
59309;DHT22;48433;53.016;-2.260;2022-07-29T11:11:46;22.20;92.30
59309;DHT22;48433;53.016;-2.260;2022-07-29T11:14:18;22.30;92.50
59309;DHT22;48433;53.016;-2.260;2022-07-29T11:17:04;22.30;92.10
59309;DHT22;48433;53.016;-2.260;2022-07-29T11:19:33;22.50;92.40
59309;DHT22;48433;53.016;-2.260;2022-07-29T11:22:02;22.70;91.80
59309;DHT22;48433;53.016;-2.260;2022-07-29T11:24:32;22.90;91.30
59309;DHT22;48433;53.016;-2.260;2022-07-29T11:27:20;23.00;91.20
59309;DHT22;48433;53.016;-2.260;2022-07-29T11:29:50;23.20;91.20
59309;DHT22;48433;53.016;-2.260;2022-07-29T11:32:20;23.60;90.50
59309;DHT22;48433;53.016;-2.260;2022-07-29T11:37:46;23.60;88.90
59309;DHT22;48433;53.016;-2.260;2022-07-29T11:40:24;23.50;88.40
59309;DHT22;48433;53.016;-2.260;2022-07-29T11:42:52;23.20;88.60
59309;DHT22;48433;53.016;-2.260;2022-07-29T11:45:22;23.00;88.60
59309;DHT22;48433;53.016;-2.260;2022-07-29T11:48:16;22.80;89.20
59309;DHT22;48433;53.016;-2.260;2022-07-29T11:50:59;22.70;89.80
59309;DHT22;48433;53.016;-2.260;2022-07-29T11:53:27;22.50;90.10
59309;DHT22;48433;53.016;-2.260;2022-07-29T11:55:59;22.50;90.10
59309;DHT22;48433;53.016;-2.260;2022-07-29T11:58:30;22.40;90.40
59309;DHT22;48433;53.016;-2.260;2022-07-29T12:00:59;22.30;90.40
59309;DHT22;48433;53.016;-2.260;2022-07-29T12:03:31;22.30;90.70
59309;DHT22;48433;53.016;-2.260;2022-07-29T12:06:13;22.40;90.90
59309;DHT22;48433;53.016;-2.260;2022-07-29T12:08:45;22.40;90.70
59309;DHT22;48433;53.016;-2.260;2022-07-29T12:11:20;22.40;90.80
59309;DHT22;48433;53.016;-2.260;2022-07-29T12:13:51;22.50;91.00
59309;DHT22;48433;53.016;-2.260;2022-07-29T12:16:20;22.50;90.80
59309;DHT22;48433;53.016;-2.260;2022-07-29T12:18:57;22.60;90.90
59309;DHT22;48433;53.016;-2.260;2022-07-29T12:21:26;22.50;90.90
59309;DHT22;48433;53.016;-2.260;2022-07-29T12:23:56;22.50;91.10
59309;DHT22;48433;53.016;-2.260;2022-07-29T12:26:36;22.50;91.10
59309;DHT22;48433;53.016;-2.260;2022-07-29T12:29:16;22.60;91.20
59309;DHT22;48433;53.016;-2.260;2022-07-29T12:32:01;22.50;91.20
59309;DHT22;48433;53.016;-2.260;2022-07-29T12:34:30;22.60;90.90
59309;DHT22;48433;53.016;-2.260;2022-07-29T12:36:58;22.60;90.80
59309;DHT22;48433;53.016;-2.260;2022-07-29T12:39:26;22.70;89.80
59309;DHT22;48433;53.016;-2.260;2022-07-29T12:41:55;22.70;89.70
59309;DHT22;48433;53.016;-2.260;2022-07-29T12:44:47;22.60;88.80
59309;DHT22;48433;53.016;-2.260;2022-07-29T12:47:16;22.60;88.80
59309;DHT22;48433;53.016;-2.260;2022-07-29T12:49:46;22.70;88.30
59309;DHT22;48433;53.016;-2.260;2022-07-29T12:52:31;22.70;87.20
59309;DHT22;48433;53.016;-2.260;2022-07-29T12:55:00;22.70;86.90
59309;DHT22;48433;53.016;-2.260;2022-07-29T12:57:28;22.70;86.10
59309;DHT22;48433;53.016;-2.260;2022-07-29T13:00:09;22.80;85.80
59309;DHT22;48433;53.016;-2.260;2022-07-29T13:02:40;22.90;84.80
59309;DHT22;48433;53.016;-2.260;2022-07-29T13:05:10;22.90;84.70
59309;DHT22;48433;53.016;-2.260;2022-07-29T13:07:40;22.90;85.00
59309;DHT22;48433;53.016;-2.260;2022-07-29T13:10:23;23.00;85.30
59309;DHT22;48433;53.016;-2.260;2022-07-29T13:15:38;23.20;85.20
59309;DHT22;48433;53.016;-2.260;2022-07-29T13:18:29;23.30;84.70
59309;DHT22;48433;53.016;-2.260;2022-07-29T13:21:10;23.30;84.70
59309;DHT22;48433;53.016;-2.260;2022-07-29T13:23:38;23.50;84.80
59309;DHT22;48433;53.016;-2.260;2022-07-29T13:26:10;23.70;84.80
59309;DHT22;48433;53.016;-2.260;2022-07-29T13:28:44;23.90;83.80
59309;DHT22;48433;53.016;-2.260;2022-07-29T13:31:12;24.10;83.20
59309;DHT22;48433;53.016;-2.260;2022-07-29T13:33:40;24.30;82.50
59309;DHT22;48433;53.016;-2.260;2022-07-29T13:36:08;24.50;82.20
59309;DHT22;48433;53.016;-2.260;2022-07-29T13:38:36;24.60;81.20
59309;DHT22;48433;53.016;-2.260;2022-07-29T13:41:03;24.70;80.70
59309;DHT22;48433;53.016;-2.260;2022-07-29T13:43:31;24.60;80.40
59309;DHT22;48433;53.016;-2.260;2022-07-29T13:45:59;24.60;79.90
59309;DHT22;48433;53.016;-2.260;2022-07-29T13:48:27;24.60;79.80
59309;DHT22;48433;53.016;-2.260;2022-07-29T13:50:55;24.40;79.90
59309;DHT22;48433;53.016;-2.260;2022-07-29T13:53:23;24.30;79.80
59309;DHT22;48433;53.016;-2.260;2022-07-29T13:55:54;24.20;79.50
59309;DHT22;48433;53.016;-2.260;2022-07-29T13:58:22;24.20;80.20
59309;DHT22;48433;53.016;-2.260;2022-07-29T14:00:50;24.20;79.60
59309;DHT22;48433;53.016;-2.260;2022-07-29T14:03:18;24.20;79.30
59309;DHT22;48433;53.016;-2.260;2022-07-29T14:05:45;24.20;78.70
59309;DHT22;48433;53.016;-2.260;2022-07-29T14:08:13;24.20;77.60
59309;DHT22;48433;53.016;-2.260;2022-07-29T14:10:41;24.30;77.30
59309;DHT22;48433;53.016;-2.260;2022-07-29T14:13:09;24.30;77.50
59309;DHT22;48433;53.016;-2.260;2022-07-29T14:15:52;24.40;77.70
59309;DHT22;48433;53.016;-2.260;2022-07-29T14:18:20;24.40;77.30
59309;DHT22;48433;53.016;-2.260;2022-07-29T14:20:48;24.40;76.70
59309;DHT22;48433;53.016;-2.260;2022-07-29T14:23:15;24.30;76.80
59309;DHT22;48433;53.016;-2.260;2022-07-29T14:25:46;24.30;77.10
59309;DHT22;48433;53.016;-2.260;2022-07-29T14:28:15;24.30;76.90
59309;DHT22;48433;53.016;-2.260;2022-07-29T14:30:43;24.20;77.10
59309;DHT22;48433;53.016;-2.260;2022-07-29T14:33:11;24.20;77.00
59309;DHT22;48433;53.016;-2.260;2022-07-29T14:35:39;24.10;76.80
59309;DHT22;48433;53.016;-2.260;2022-07-29T14:38:07;24.10;77.00
59309;DHT22;48433;53.016;-2.260;2022-07-29T14:40:34;23.90;77.30
59309;DHT22;48433;53.016;-2.260;2022-07-29T14:43:02;23.90;78.40
59309;DHT22;48433;53.016;-2.260;2022-07-29T14:45:30;23.90;78.60
59309;DHT22;48433;53.016;-2.260;2022-07-29T14:47:58;23.90;78.30
59309;DHT22;48433;53.016;-2.260;2022-07-29T14:50:27;23.90;78.30
59309;DHT22;48433;53.016;-2.260;2022-07-29T14:52:59;23.90;78.50
59309;DHT22;48433;53.016;-2.260;2022-07-29T14:55:27;24.00;78.40
59309;DHT22;48433;53.016;-2.260;2022-07-29T14:57:55;24.00;78.10
59309;DHT22;48433;53.016;-2.260;2022-07-29T15:00:35;23.90;77.40
59309;DHT22;48433;53.016;-2.260;2022-07-29T15:03:04;23.90;77.70
59309;DHT22;48433;53.016;-2.260;2022-07-29T15:05:34;23.90;77.80
59309;DHT22;48433;53.016;-2.260;2022-07-29T15:08:02;23.80;78.20
59309;DHT22;48433;53.016;-2.260;2022-07-29T15:10:30;23.70;79.10
59309;DHT22;48433;53.016;-2.260;2022-07-29T15:12:58;23.70;80.10
59309;DHT22;48433;53.016;-2.260;2022-07-29T15:15:27;23.60;80.10
59309;DHT22;48433;53.016;-2.260;2022-07-29T15:17:55;23.50;80.30
59309;DHT22;48433;53.016;-2.260;2022-07-29T15:20:22;23.30;80.70
59309;DHT22;48433;53.016;-2.260;2022-07-29T15:22:53;23.20;80.90
59309;DHT22;48433;53.016;-2.260;2022-07-29T15:25:23;23.10;81.50
59309;DHT22;48433;53.016;-2.260;2022-07-29T15:27:51;23.00;81.70
59309;DHT22;48433;53.016;-2.260;2022-07-29T15:30:24;22.90;82.10
59309;DHT22;48433;53.016;-2.260;2022-07-29T15:33:03;22.90;82.20
59309;DHT22;48433;53.016;-2.260;2022-07-29T15:35:32;22.90;82.20
59309;DHT22;48433;53.016;-2.260;2022-07-29T15:38:07;22.90;82.30
59309;DHT22;48433;53.016;-2.260;2022-07-29T15:40:37;22.90;82.50
59309;DHT22;48433;53.016;-2.260;2022-07-29T15:43:06;22.90;83.10
59309;DHT22;48433;53.016;-2.260;2022-07-29T15:45:43;22.80;83.60
59309;DHT22;48433;53.016;-2.260;2022-07-29T15:48:29;22.80;84.10
59309;DHT22;48433;53.016;-2.260;2022-07-29T15:50:59;22.70;84.80
59309;DHT22;48433;53.016;-2.260;2022-07-29T15:53:27;22.70;85.40
59309;DHT22;48433;53.016;-2.260;2022-07-29T15:55:55;22.80;85.90
59309;DHT22;48433;53.016;-2.260;2022-07-29T15:58:22;22.80;85.90
59309;DHT22;48433;53.016;-2.260;2022-07-29T16:00:50;22.80;85.60
59309;DHT22;48433;53.016;-2.260;2022-07-29T16:03:18;22.90;85.30
59309;DHT22;48433;53.016;-2.260;2022-07-29T16:05:46;22.90;85.00
59309;DHT22;48433;53.016;-2.260;2022-07-29T16:08:14;23.00;84.80
59309;DHT22;48433;53.016;-2.260;2022-07-29T16:10:41;23.10;84.50
59309;DHT22;48433;53.016;-2.260;2022-07-29T16:13:09;23.10;84.00
59309;DHT22;48433;53.016;-2.260;2022-07-29T16:15:44;23.10;83.90
59309;DHT22;48433;53.016;-2.260;2022-07-29T16:18:28;23.10;84.30
59309;DHT22;48433;53.016;-2.260;2022-07-29T16:20:56;23.10;84.40